Latest Weather Observations for Minnipa RS

IDS60801

Issued at 8:21 am CDT Wednesday 23 October 2019 (issued every 10 minutes, with the page automatically refreshed every 10 minutes)

About weather observations | Map of weather stations | Latest weather observations for SA | Other Formats
Station Details ID: 018195 Name: MINNIPA PIRSA Lat: -32.84 Lon: 135.15 Height: 165.0 m
Data from the previous 72 hours. | See also: Recent months at Minnipa RS
Date/Time
CDT
Temp
°C
App
Temp
°C
Dew
Point
°C
Rel
Hum
%
Delta-T
°C
Wind Press
QNH
hPa
Press
MSL
hPa
Rain since
9am
mm
Dir  Spd
km/h
Gust
km/h
Spd
kts
Gust
kts
23/08:00am 21.9 16.0 -5.9 15 11.2 NE 17 20 9 11 1018.3 1017.9 0.0
23/07:30am 19.7 13.3 -6.8 16 10.2 NE 19 22 10 12 1018.3 1017.9 0.0
23/07:00am 20.1 13.7 -7.3 15 10.5 NNE 19 22 10 12 1018.1 1017.7 0.0
23/06:30am 20.1 13.5 -7.3 15 10.5 NNE 20 24 11 13 1017.8 1017.4 0.0
23/06:00am 19.4 12.9 -7.9 15 10.3 NE 19 22 10 12 1017.5 1017.1 0.0
23/05:30am 19.6 12.9 -8.6 14 10.5 NE 20 24 11 13 1017.3 1016.9 0.0
23/05:00am 19.0 12.5 -8.2 15 10.2 NE 19 22 10 12 1017.2 1016.8 0.0
23/04:30am 18.4 11.8 -8.7 15 9.9 NE 19 22 10 12 1017.3 1016.9 0.0
23/04:00am 18.7 12.0 -8.4 15 10.0 NE 20 20 11 11 1017.4 1017.0 0.0
23/03:30am 18.4 11.8 -8.7 15 9.9 NE 19 22 10 12 1017.4 1017.0 0.0
23/03:00am 18.8 12.3 -8.3 15 10.1 NE 19 22 10 12 1017.7 1017.3 0.0
23/02:30am 19.8 13.6 -8.4 14 10.6 NE 17 20 9 11 1017.8 1017.4 0.0
23/02:00am 21.1 14.6 -8.4 13 11.2 NE 19 20 10 11 1018.1 1017.7 0.0
23/01:30am 21.2 15.1 -8.3 13 11.2 NE 17 22 9 12 1018.3 1017.9 0.0
23/01:00am 20.2 13.7 -8.1 14 10.7 NE 19 20 10 11 1018.5 1018.1 0.0
23/12:30am 21.6 15.4 -9.0 12 11.5 NE 17 20 9 11 1018.6 1018.2 0.0
23/12:00am 21.0 14.8 -8.4 13 11.1 NE 17 20 9 11 1018.9 1018.5 0.0
 
Date/Time
CDT
Temp
°C
App
Temp
°C
Dew
Point
°C
Rel
Hum
%
Delta-T
°C
Wind Press
QNH
hPa
Press
MSL
hPa
Rain since
9am
mm
Dir  Spd
km/h
Gust
km/h
Spd
kts
Gust
kts
22/11:30pm 22.6 16.0 -9.3 11 12.1 NE 19 22 10 12 1019.1 1018.8 0.0
22/11:00pm 23.3 16.7 -8.8 11 12.4 NE 19 22 10 12 1019.3 1019.0 0.0
22/10:30pm 23.2 17.0 -8.9 11 12.3 NE 17 20 9 11 1019.5 1019.2 0.0
22/10:00pm 23.8 17.5 -9.6 10 12.8 NE 17 20 9 11 1019.5 1019.2 0.0
22/09:30pm 24.0 17.8 -9.5 10 12.8 NE 17 20 9 11 1019.4 1019.1 0.0
22/09:00pm 24.4 18.2 -9.1 10 13.0 NE 17 20 9 11 1019.2 1018.9 0.0
22/08:30pm 24.7 18.5 -8.9 10 13.1 NE 17 20 9 11 1019.0 1018.6 0.0
22/08:00pm 26.5 20.3 -8.9 9 14.1 NNE 17 20 9 11 1018.7 1018.3 0.0
22/07:30pm 28.1 22.4 -7.7 9 14.8 NNE 15 20 8 11 1018.5 1018.1 0.0
22/07:00pm 29.8 23.7 -8.0 8 15.8 NE 17 30 9 16 1018.2 1017.8 0.0
22/06:30pm 30.6 26.0 -7.4 8 16.1 NNE 9 20 5 11 1018.2 1017.8 0.0
22/06:00pm 31.5 26.6 -6.7 8 16.5 ENE 11 17 6 9 1018.1 1017.7 0.0
22/05:30pm 31.7 27.1 -8.3 7 16.9 NNE 9 15 5 8 1018.0 1017.6 0.0
22/05:00pm 31.5 26.6 -6.7 8 16.6 ENE 11 24 6 13 1018.1 1017.7 0.0
22/04:30pm 31.8 26.8 -8.2 7 16.9 N 11 24 6 13 1018.4 1018.0 0.0
22/04:00pm 31.4 26.0 -8.5 7 16.8 ENE 13 22 7 12 1018.7 1018.3 0.0
22/03:30pm 31.8 27.3 -6.5 8 16.7 NNE 9 22 5 12 1019.0 1018.6 0.0
22/03:00pm 30.8 24.7 -7.2 8 16.2 NNE 17 28 9 15 1019.5 1019.2 0.0
22/02:30pm 30.6 25.3 -7.4 8 16.1 NE 13 22 7 12 1019.9 1019.6 0.0
22/02:00pm 30.6 24.3 -5.8 9 15.9 N 19 32 10 17 1020.4 1020.1 0.0
22/01:30pm 30.5 25.3 -5.9 9 15.8 WNW 13 20 7 11 1020.8 1020.5 0.0
22/01:00pm 30.1 24.1 -6.2 9 15.7 N 17 33 9 18 1021.2 1020.9 0.0
22/12:30pm 29.0 24.2 -5.7 10 14.9 NNE 11 19 6 10 1021.6 1021.3 0.0
22/12:00pm 28.6 23.4 -6.0 10 14.8 NNE 13 22 7 12 1022.1 1021.8 0.0
22/11:30am 28.4 23.0 -4.9 11 14.5 NNE 15 24 8 13 1022.5 1022.2 0.0
22/11:00am 28.4 22.6 -4.9 11 14.5 NNE 17 26 9 14 1022.7 1022.4 0.0
22/10:30am 27.2 21.4 -4.6 12 13.7 N 17 24 9 13 1022.9 1022.6 0.0
22/10:00am 26.1 20.0 -3.5 14 13.0 NNE 19 24 10 13 1023.1 1022.8 0.0
22/09:30am 24.3 18.2 -2.3 17 11.7 NNE 20 24 11 13 1023.0 1022.7 0.0
22/09:00am 22.7 16.7 -1.4 20 10.6 NNE 20 28 11 15 1023.0 1022.7 0.0
22/08:30am 21.0 15.7 -0.9 23 9.6 NE 17 22 9 12 1022.9 1022.6 0.0
22/08:00am 17.9 12.4 -1.9 26 8.3 NE 17 20 9 11 1022.9 1022.6 0.0
22/07:30am 16.4 10.3 -2.6 27 7.7 NE 20 24 11 13 1022.7 1022.4 0.0
22/07:00am 14.8 8.8 -3.0 29 7.1 NE 19 22 10 12 1022.2 1021.9 0.0
22/06:30am 15.1 9.1 -2.8 29 7.2 NE 19 20 10 11 1022.0 1021.7 0.0
22/06:00am 15.1 9.1 -3.2 28 7.2 NE 19 20 10 11 1021.8 1021.5 0.0
22/05:30am 15.4 9.2 -3.5 27 7.5 NE 20 24 11 13 1021.5 1021.2 0.0
22/05:00am 15.6 9.4 -3.3 27 7.5 NE 20 22 11 12 1021.5 1021.2 0.0
22/04:30am 15.8 9.5 -3.6 26 7.7 ENE 20 22 11 12 1021.4 1021.1 0.0
22/04:00am 15.7 9.6 -3.7 26 7.7 NE 19 20 10 11 1021.5 1021.2 0.0
22/03:30am 16.1 9.8 -3.9 25 7.9 ENE 20 22 11 12 1021.6 1021.3 0.0
22/03:00am 16.1 10.0 -3.9 25 7.9 NE 19 22 10 12 1021.8 1021.5 0.0
22/02:30am 16.0 9.7 -4.0 25 7.9 ENE 20 22 11 12 1022.1 1021.8 0.0
22/02:00am 16.3 10.2 -3.7 25 8.0 ENE 19 22 10 12 1022.5 1022.2 0.0
22/01:30am 16.8 10.5 -3.9 24 8.2 ENE 20 22 11 12 1022.6 1022.3 0.0
22/01:00am 17.5 11.3 -4.4 22 8.7 ENE 19 20 10 11 1022.9 1022.6 0.0
22/12:30am 17.6 11.8 -4.3 22 8.7 NE 17 20 9 11 1023.0 1022.7 0.0
22/12:00am 17.8 11.7 -3.6 23 8.6 NE 19 20 10 11 1023.1 1022.8 0.0
 
Date/Time
CDT
Temp
°C
App
Temp
°C
Dew
Point
°C
Rel
Hum
%
Delta-T
°C
Wind Press
QNH
hPa
Press
MSL
hPa
Rain since
9am
mm
Dir  Spd
km/h
Gust
km/h
Spd
kts
Gust
kts
21/11:30pm 17.6 11.8 -4.3 22 8.7 NE 17 19 9 10 1023.3 1023.0 0.0
21/11:00pm 18.4 12.6 -4.9 20 9.3 ENE 17 19 9 10 1023.5 1023.1 0.0
21/10:30pm 19.1 13.2 -5.7 18 9.7 NE 17 19 9 10 1023.7 1023.3 0.0
21/10:00pm 21.0 15.0 -6.6 15 10.9 NE 17 19 9 10 1023.7 1023.3 0.0
21/09:30pm 19.0 13.5 -5.1 19 9.5 NE 15 17 8 9 1023.6 1023.2 0.0
21/09:00pm 19.3 13.9 -4.2 20 9.5 ENE 15 17 8 9 1023.3 1023.0 0.0
21/08:30pm 21.0 16.0 -4.2 18 10.4 E 13 17 7 9 1023.0 1022.7 0.0
21/08:00pm 23.0 17.9 -5.0 15 11.6 E 13 17 7 9 1022.9 1022.6 0.0
21/07:30pm 25.9 20.1 -4.6 13 13.0 E 17 24 9 13 1022.7 1022.4 0.0
21/07:00pm 27.0 20.8 -4.8 12 13.7 ESE 19 24 10 13 1022.6 1022.3 0.0
21/06:30pm 27.4 21.6 -4.5 12 13.8 ESE 17 24 9 13 1022.5 1022.2 0.0
21/06:00pm 27.2 21.5 -3.6 13 13.6 E 17 24 9 13 1022.6 1022.3 0.0
21/05:30pm 27.5 22.6 -3.3 13 13.7 E 13 20 7 11 1022.6 1022.3 0.0
21/05:00pm 27.3 22.4 -3.5 13 13.6 E 13 20 7 11 1022.6 1022.3 0.0
21/04:30pm 28.4 23.5 -3.7 12 14.2 ESE 13 19 7 10 1022.7 1022.4 0.0
21/04:00pm 27.4 22.9 -3.4 13 13.7 ESE 11 19 6 10 1022.9 1022.6 0.0
21/03:30pm 27.1 22.2 -3.7 13 13.5 NE 13 20 7 11 1023.3 1023.0 0.0
21/03:00pm 27.3 22.3 -4.6 12 13.8 E 13 19 7 10 1024.0 1023.6 0.0
21/02:30pm 27.3 21.8 -5.7 11 14.0 ENE 15 20 8 11 1024.3 1024.0 0.0
21/02:00pm 27.8 22.9 -3.1 13 13.8 ENE 13 22 7 12 1024.6 1024.3 0.0
21/01:30pm 26.4 21.3 -2.3 15 12.8 N 15 24 8 13 1025.0 1024.7 0.0
21/01:00pm 26.1 20.4 -0.8 17 12.4 N 19 28 10 15 1025.3 1025.0 0.0
21/12:30pm 24.1 18.4 -0.9 19 11.3 N 19 28 10 15 1025.5 1025.2 0.0
21/12:00pm 24.3 17.6 -0.8 19 11.3 N 24 32 13 17 1025.9 1025.6 0.0
21/11:30am 23.2 16.7 0.3 22 10.5 N 24 33 13 18 1026.2 1025.9 0.0
21/11:00am 23.2 16.8 0.9 23 10.4 N 24 32 13 17 1026.4 1026.1 0.0
21/10:30am 24.0 17.6 1.0 22 10.7 NNE 24 35 13 19 1026.5 1026.2 0.0
21/10:00am 22.3 16.8 1.9 26 9.6 NNE 20 30 11 16 1026.8 1026.5 0.0
21/09:30am 21.0 15.9 3.2 31 8.5 NNE 19 22 10 12 1026.9 1026.6 0.0
21/09:00am 19.8 15.1 3.1 33 7.9 NNE 17 20 9 11 1026.7 1026.4 0.0
21/08:30am 17.0 12.0 3.7 41 6.2 NE 19 26 10 14 1026.5 1026.2 0.0
21/08:00am 14.9 10.0 4.0 48 5.1 NE 19 24 10 13 1026.4 1026.1 0.0
21/07:30am 13.1 8.2 4.0 54 4.1 NE 19 24 10 13 1026.4 1026.1 0.0
21/07:00am 12.5 7.4 4.2 57 3.8 ENE 20 24 11 13 1026.0 1025.7 0.0
21/06:30am 11.6 6.5 4.3 61 3.3 NE 20 24 11 13 1025.7 1025.4 0.0
21/06:00am 11.9 6.9 4.4 60 3.4 ENE 20 24 11 13 1025.8 1025.5 0.0
21/05:30am 11.9 6.5 4.4 60 3.4 ENE 22 26 12 14 1025.6 1025.3 0.0
21/05:00am 11.9 6.1 4.4 60 3.4 ENE 24 28 13 15 1025.5 1025.2 0.0
21/04:30am 12.2 6.0 4.4 59 3.5 ENE 26 32 14 17 1025.2 1024.9 0.0
21/04:00am 13.0 6.8 4.4 56 4.0 ENE 26 32 14 17 1025.5 1025.2 0.0
21/03:30am 13.2 7.3 4.1 54 4.1 ENE 24 30 13 16 1025.8 1025.5 0.0
21/03:00am 13.8 8.7 3.9 51 4.5 E 20 28 11 15 1026.0 1025.7 0.0
21/02:30am 13.2 8.2 3.8 53 4.3 E 19 22 10 12 1026.3 1026.0 0.0
21/02:00am 14.0 9.4 3.8 50 4.7 E 17 20 9 11 1026.5 1026.2 0.0
21/01:30am 14.3 9.3 3.5 48 4.9 E 19 22 10 12 1026.6 1026.3 0.0
21/01:00am 14.6 9.3 3.1 46 5.2 E 20 24 11 13 1026.6 1026.3 0.0
21/12:30am 14.7 9.6 2.9 45 5.3 E 19 24 10 13 1026.6 1026.3 0.0
21/12:00am 15.3 9.6 3.1 44 5.5 E 22 30 12 16 1026.7 1026.4 0.0
 
Date/Time
CDT
Temp
°C
App
Temp
°C
Dew
Point
°C
Rel
Hum
%
Delta-T
°C
Wind Press
QNH
hPa
Press
MSL
hPa
Rain since
9am
mm
Dir  Spd
km/h
Gust
km/h
Spd
kts
Gust
kts
20/11:30pm 16.1 10.1 3.2 42 5.9 E 24 32 13 17 1026.7 1026.4 0.0
20/11:00pm 16.0 10.7 3.1 42 5.9 E 20 26 11 14 1027.0 1026.7 0.0
20/10:30pm 15.9 11.6 3.0 42 5.9 ESE 15 19 8 10 1027.1 1026.8 0.0
20/10:00pm 16.3 11.8 2.3 39 6.3 SE 15 19 8 10 1027.1 1026.8 0.0
20/09:30pm 17.2 12.5 1.2 34 7.1 SE 15 19 8 10 1027.0 1026.7 0.0
20/09:00pm 18.2 13.0 0.4 30 7.8 SE 17 26 9 14 1026.8 1026.5 0.0
20/08:30pm 18.6 14.0 -1.3 26 8.5 SE 13 15 7 8 1026.6 1026.3 0.0
20/08:00pm 19.6 15.3 -1.5 24 9.1 SE 11 13 6 7 1026.5 1026.2 0.0
20/07:30pm 22.5 17.8 -1.6 20 10.6 SSE 13 17 7 9 1026.4 1026.1 0.0
20/07:00pm 23.6 18.6 -1.3 19 11.1 SSE 15 22 8 12 1026.4 1026.1 0.0
20/06:30pm 25.1 20.5 -0.9 18 11.8 SE 13 22 7 12 1025.9 1025.6 0.0
20/06:00pm 25.3 19.8 -2.3 16 12.2 SE 17 24 9 13 1025.6 1025.3 0.0
20/05:30pm 25.6 22.1 -1.2 17 12.1 S 7 17 4 9 1025.4 1025.1 0.0
20/05:00pm 25.0 20.7 -1.7 17 12.0 E 11 17 6 9 1025.5 1025.2 0.0
20/04:30pm 24.8 20.5 -1.9 17 11.9 E 11 20 6 11 1025.9 1025.6 0.0
20/04:00pm 24.9 20.3 -1.0 18 11.8 SE 13 22 7 12 1026.1 1025.8 0.0
20/03:30pm 25.0 20.5 -0.2 19 11.6 E 13 32 7 17 1026.3 1026.0 0.0
20/03:00pm 24.1 19.7 0.4 21 10.9 SE 13 20 7 11 1026.6 1026.3 0.0
20/02:30pm 23.6 20.4 0.7 22 10.6 SSE 7 13 4 7 1027.0 1026.7 0.0
20/02:00pm 22.3 18.7 0.8 24 9.9 ENE 9 17 5 9 1027.3 1027.0 0.0
20/01:30pm 22.3 18.4 1.3 25 9.7 ENE 11 20 6 11 1027.7 1027.4 0.0
20/01:00pm 21.0 17.5 1.3 27 9.1 ESE 9 15 5 8 1027.9 1027.6 0.0
20/12:30pm 20.5 16.4 2.3 30 8.5 ESE 13 20 7 11 1028.2 1027.9 0.0
20/12:00pm 19.3 15.0 3.1 34 7.6 E 15 24 8 13 1028.7 1028.4 0.0
20/11:30am 18.4 13.9 2.3 34 7.4 E 15 24 8 13 1029.0 1028.7 0.0
20/11:00am 17.6 13.3 3.1 38 6.7 E 15 22 8 12 1029.2 1028.9 0.0
20/10:30am 16.5 11.9 3.9 43 5.9 E 17 24 9 13 1029.5 1029.3 0.0
20/10:00am 15.4 10.5 4.2 47 5.2 E 19 24 10 13 1029.6 1029.4 0.0
20/09:30am 13.9 8.6 4.8 54 4.2 ESE 22 30 12 16 1029.5 1029.3 0.0
20/09:00am 12.8 7.2 5.2 60 3.5 ESE 24 33 13 18 1029.3 1029.0 0.0
20/08:30am 11.1 5.4 4.8 65 2.9 ESE 24 30 13 16 1029.5 1029.3 0.0

Other formats

Comma delimited format used in spreadsheet applications
http://www.bom.gov.au/fwo/IDS60801/IDS60801.95662.axf

JavaScript Object Notation format (JSON) in row-major order
http://www.bom.gov.au/fwo/IDS60801/IDS60801.95662.json

Data quality

Most of these data are generated automatically and are frequently updated. Quality checks on data are not normally performed. It is possible for incorrect values to appear. Refer to information at About Latest Weather Observations and please check the disclaimer before using these data.